sensor_id;sensor_type;location;lat;lon;timestamp;P1;durP1;ratioP1;P2;durP2;ratioP2
71127;SDS011;59249;59.736;30.568;2022-07-06T00:01:14;9.43;;;5.70;;
71127;SDS011;59249;59.736;30.568;2022-07-06T00:03:43;11.43;;;6.72;;
71127;SDS011;59249;59.736;30.568;2022-07-06T00:06:17;11.73;;;5.90;;
71127;SDS011;59249;59.736;30.568;2022-07-06T00:08:45;8.95;;;5.47;;
71127;SDS011;59249;59.736;30.568;2022-07-06T00:11:15;11.20;;;5.60;;
71127;SDS011;59249;59.736;30.568;2022-07-06T00:13:47;7.80;;;4.53;;
71127;SDS011;59249;59.736;30.568;2022-07-06T00:16:16;7.38;;;4.53;;
71127;SDS011;59249;59.736;30.568;2022-07-06T00:18:46;11.63;;;4.55;;
71127;SDS011;59249;59.736;30.568;2022-07-06T00:21:14;7.03;;;4.38;;
71127;SDS011;59249;59.736;30.568;2022-07-06T00:23:43;7.18;;;4.38;;
71127;SDS011;59249;59.736;30.568;2022-07-06T00:26:12;8.10;;;5.30;;
71127;SDS011;59249;59.736;30.568;2022-07-06T00:28:42;8.88;;;4.80;;
71127;SDS011;59249;59.736;30.568;2022-07-06T00:31:11;10.15;;;4.78;;
71127;SDS011;59249;59.736;30.568;2022-07-06T00:33:40;7.65;;;4.65;;
71127;SDS011;59249;59.736;30.568;2022-07-06T00:36:09;11.93;;;4.85;;
71127;SDS011;59249;59.736;30.568;2022-07-06T00:38:38;7.17;;;4.53;;
71127;SDS011;59249;59.736;30.568;2022-07-06T00:41:07;8.60;;;5.15;;
71127;SDS011;59249;59.736;30.568;2022-07-06T00:43:53;9.10;;;4.70;;
71127;SDS011;59249;59.736;30.568;2022-07-06T00:46:25;10.15;;;5.68;;
71127;SDS011;59249;59.736;30.568;2022-07-06T00:48:56;10.18;;;5.97;;
71127;SDS011;59249;59.736;30.568;2022-07-06T00:51:25;11.03;;;7.00;;
71127;SDS011;59249;59.736;30.568;2022-07-06T00:53:58;15.77;;;7.03;;
71127;SDS011;59249;59.736;30.568;2022-07-06T00:56:28;12.27;;;6.93;;
71127;SDS011;59249;59.736;30.568;2022-07-06T00:59:00;10.93;;;6.18;;
71127;SDS011;59249;59.736;30.568;2022-07-06T01:01:29;10.93;;;6.10;;
71127;SDS011;59249;59.736;30.568;2022-07-06T01:03:58;11.60;;;6.93;;
71127;SDS011;59249;59.736;30.568;2022-07-06T01:06:26;11.52;;;6.18;;
71127;SDS011;59249;59.736;30.568;2022-07-06T01:08:55;12.80;;;7.00;;
71127;SDS011;59249;59.736;30.568;2022-07-06T01:11:24;13.00;;;6.90;;
71127;SDS011;59249;59.736;30.568;2022-07-06T01:13:53;12.20;;;6.65;;
71127;SDS011;59249;59.736;30.568;2022-07-06T01:16:25;10.67;;;6.20;;
71127;SDS011;59249;59.736;30.568;2022-07-06T01:18:54;13.05;;;6.63;;
71127;SDS011;59249;59.736;30.568;2022-07-06T01:21:24;9.70;;;5.82;;
71127;SDS011;59249;59.736;30.568;2022-07-06T01:23:53;11.00;;;6.25;;
71127;SDS011;59249;59.736;30.568;2022-07-06T01:26:21;11.63;;;5.88;;
71127;SDS011;59249;59.736;30.568;2022-07-06T01:28:51;10.00;;;5.47;;
71127;SDS011;59249;59.736;30.568;2022-07-06T01:31:20;10.05;;;4.82;;
71127;SDS011;59249;59.736;30.568;2022-07-06T01:33:50;9.63;;;4.55;;
71127;SDS011;59249;59.736;30.568;2022-07-06T01:36:20;7.85;;;3.85;;
71127;SDS011;59249;59.736;30.568;2022-07-06T01:38:52;8.15;;;4.00;;
71127;SDS011;59249;59.736;30.568;2022-07-06T01:41:21;9.47;;;4.20;;
71127;SDS011;59249;59.736;30.568;2022-07-06T01:43:50;8.07;;;4.20;;
71127;SDS011;59249;59.736;30.568;2022-07-06T01:46:19;6.75;;;3.75;;
71127;SDS011;59249;59.736;30.568;2022-07-06T01:48:47;7.38;;;4.00;;
71127;SDS011;59249;59.736;30.568;2022-07-06T01:51:16;10.77;;;3.50;;
71127;SDS011;59249;59.736;30.568;2022-07-06T01:53:46;7.27;;;3.80;;
71127;SDS011;59249;59.736;30.568;2022-07-06T01:56:19;6.97;;;3.00;;
71127;SDS011;59249;59.736;30.568;2022-07-06T01:58:52;7.88;;;2.97;;
71127;SDS011;59249;59.736;30.568;2022-07-06T02:01:22;7.30;;;3.17;;
71127;SDS011;59249;59.736;30.568;2022-07-06T02:03:51;9.30;;;2.88;;
71127;SDS011;59249;59.736;30.568;2022-07-06T02:06:21;5.90;;;3.20;;
71127;SDS011;59249;59.736;30.568;2022-07-06T02:08:49;8.77;;;3.30;;
71127;SDS011;59249;59.736;30.568;2022-07-06T02:11:22;6.60;;;3.28;;
71127;SDS011;59249;59.736;30.568;2022-07-06T02:13:52;6.53;;;3.35;;
71127;SDS011;59249;59.736;30.568;2022-07-06T02:16:20;5.93;;;2.58;;
71127;SDS011;59249;59.736;30.568;2022-07-06T02:18:49;6.90;;;2.93;;
71127;SDS011;59249;59.736;30.568;2022-07-06T02:21:17;8.00;;;2.65;;
71127;SDS011;59249;59.736;30.568;2022-07-06T02:23:46;6.90;;;3.08;;
71127;SDS011;59249;59.736;30.568;2022-07-06T02:26:16;8.00;;;3.10;;
71127;SDS011;59249;59.736;30.568;2022-07-06T02:28:46;6.05;;;3.17;;
71127;SDS011;59249;59.736;30.568;2022-07-06T02:31:15;7.13;;;2.70;;
71127;SDS011;59249;59.736;30.568;2022-07-06T02:33:46;6.80;;;2.60;;
71127;SDS011;59249;59.736;30.568;2022-07-06T02:36:15;6.40;;;3.13;;
71127;SDS011;59249;59.736;30.568;2022-07-06T02:38:43;5.63;;;2.70;;
71127;SDS011;59249;59.736;30.568;2022-07-06T02:41:12;4.63;;;2.20;;
71127;SDS011;59249;59.736;30.568;2022-07-06T02:43:41;5.87;;;2.70;;
71127;SDS011;59249;59.736;30.568;2022-07-06T02:46:12;5.70;;;2.83;;
71127;SDS011;59249;59.736;30.568;2022-07-06T02:48:41;6.72;;;2.58;;
71127;SDS011;59249;59.736;30.568;2022-07-06T02:51:10;7.30;;;2.97;;
71127;SDS011;59249;59.736;30.568;2022-07-06T02:53:39;8.05;;;3.50;;
71127;SDS011;59249;59.736;30.568;2022-07-06T02:56:07;10.40;;;2.97;;
71127;SDS011;59249;59.736;30.568;2022-07-06T02:58:36;5.55;;;3.00;;
71127;SDS011;59249;59.736;30.568;2022-07-06T03:01:05;6.97;;;2.70;;
71127;SDS011;59249;59.736;30.568;2022-07-06T03:03:36;7.15;;;2.67;;
71127;SDS011;59249;59.736;30.568;2022-07-06T03:06:05;5.07;;;2.72;;
71127;SDS011;59249;59.736;30.568;2022-07-06T03:08:34;6.47;;;2.53;;
71127;SDS011;59249;59.736;30.568;2022-07-06T03:11:04;5.18;;;2.72;;
71127;SDS011;59249;59.736;30.568;2022-07-06T03:13:33;5.68;;;2.60;;
71127;SDS011;59249;59.736;30.568;2022-07-06T03:16:02;6.78;;;2.80;;
71127;SDS011;59249;59.736;30.568;2022-07-06T03:18:31;6.00;;;2.75;;
71127;SDS011;59249;59.736;30.568;2022-07-06T03:21:02;6.20;;;2.70;;
71127;SDS011;59249;59.736;30.568;2022-07-06T03:23:31;4.93;;;2.30;;
71127;SDS011;59249;59.736;30.568;2022-07-06T03:26:00;6.85;;;2.78;;
71127;SDS011;59249;59.736;30.568;2022-07-06T03:28:30;6.65;;;2.65;;
71127;SDS011;59249;59.736;30.568;2022-07-06T03:30:59;5.72;;;2.40;;
71127;SDS011;59249;59.736;30.568;2022-07-06T03:33:28;6.00;;;2.33;;
71127;SDS011;59249;59.736;30.568;2022-07-06T03:35:57;7.20;;;2.40;;
71127;SDS011;59249;59.736;30.568;2022-07-06T03:38:27;5.00;;;2.25;;
71127;SDS011;59249;59.736;30.568;2022-07-06T03:40:56;7.15;;;2.63;;
71127;SDS011;59249;59.736;30.568;2022-07-06T03:43:25;8.15;;;2.40;;
71127;SDS011;59249;59.736;30.568;2022-07-06T03:45:54;6.03;;;2.53;;
71127;SDS011;59249;59.736;30.568;2022-07-06T03:48:23;7.18;;;2.15;;
71127;SDS011;59249;59.736;30.568;2022-07-06T03:50:53;5.93;;;1.85;;
71127;SDS011;59249;59.736;30.568;2022-07-06T03:53:22;10.40;;;2.67;;
71127;SDS011;59249;59.736;30.568;2022-07-06T03:55:52;7.03;;;2.38;;
71127;SDS011;59249;59.736;30.568;2022-07-06T03:58:39;5.53;;;2.30;;
71127;SDS011;59249;59.736;30.568;2022-07-06T04:01:08;5.35;;;1.85;;
71127;SDS011;59249;59.736;30.568;2022-07-06T04:03:36;4.45;;;1.83;;
71127;SDS011;59249;59.736;30.568;2022-07-06T04:06:05;6.70;;;2.00;;
71127;SDS011;59249;59.736;30.568;2022-07-06T04:08:34;6.18;;;2.00;;
71127;SDS011;59249;59.736;30.568;2022-07-06T04:11:04;7.10;;;2.10;;
71127;SDS011;59249;59.736;30.568;2022-07-06T04:13:34;4.45;;;2.10;;
71127;SDS011;59249;59.736;30.568;2022-07-06T04:16:04;9.20;;;1.88;;
71127;SDS011;59249;59.736;30.568;2022-07-06T04:18:33;4.30;;;1.88;;
71127;SDS011;59249;59.736;30.568;2022-07-06T04:21:03;7.28;;;2.05;;
71127;SDS011;59249;59.736;30.568;2022-07-06T04:23:35;7.53;;;1.70;;
71127;SDS011;59249;59.736;30.568;2022-07-06T04:26:07;7.03;;;1.70;;
71127;SDS011;59249;59.736;30.568;2022-07-06T04:28:38;6.63;;;1.52;;
71127;SDS011;59249;59.736;30.568;2022-07-06T04:31:07;6.82;;;1.58;;
71127;SDS011;59249;59.736;30.568;2022-07-06T04:33:36;4.47;;;1.48;;
71127;SDS011;59249;59.736;30.568;2022-07-06T04:36:05;5.47;;;2.33;;
71127;SDS011;59249;59.736;30.568;2022-07-06T04:38:39;5.43;;;1.75;;
71127;SDS011;59249;59.736;30.568;2022-07-06T04:41:11;4.43;;;1.50;;
71127;SDS011;59249;59.736;30.568;2022-07-06T04:43:40;8.60;;;2.35;;
71127;SDS011;59249;59.736;30.568;2022-07-06T04:46:13;4.95;;;2.10;;
71127;SDS011;59249;59.736;30.568;2022-07-06T04:48:45;6.37;;;1.50;;
71127;SDS011;59249;59.736;30.568;2022-07-06T04:51:20;4.72;;;1.67;;
71127;SDS011;59249;59.736;30.568;2022-07-06T04:53:49;6.35;;;1.63;;
71127;SDS011;59249;59.736;30.568;2022-07-06T04:56:20;5.90;;;1.48;;
71127;SDS011;59249;59.736;30.568;2022-07-06T04:58:48;7.07;;;1.58;;
71127;SDS011;59249;59.736;30.568;2022-07-06T05:01:19;5.67;;;1.63;;
71127;SDS011;59249;59.736;30.568;2022-07-06T05:03:48;4.80;;;1.42;;
71127;SDS011;59249;59.736;30.568;2022-07-06T05:06:20;5.95;;;1.63;;
71127;SDS011;59249;59.736;30.568;2022-07-06T05:08:49;8.63;;;1.33;;
71127;SDS011;59249;59.736;30.568;2022-07-06T05:11:20;4.13;;;1.25;;
71127;SDS011;59249;59.736;30.568;2022-07-06T05:13:50;6.67;;;1.47;;
71127;SDS011;59249;59.736;30.568;2022-07-06T05:16:18;5.68;;;1.40;;
71127;SDS011;59249;59.736;30.568;2022-07-06T05:18:48;4.00;;;1.50;;
71127;SDS011;59249;59.736;30.568;2022-07-06T05:21:17;4.82;;;1.33;;
71127;SDS011;59249;59.736;30.568;2022-07-06T05:23:45;5.88;;;1.15;;
71127;SDS011;59249;59.736;30.568;2022-07-06T05:26:14;4.13;;;0.97;;
71127;SDS011;59249;59.736;30.568;2022-07-06T05:28:45;5.15;;;1.20;;
71127;SDS011;59249;59.736;30.568;2022-07-06T05:31:17;6.80;;;0.90;;
71127;SDS011;59249;59.736;30.568;2022-07-06T05:33:46;3.92;;;1.25;;
71127;SDS011;59249;59.736;30.568;2022-07-06T05:36:15;7.15;;;1.10;;
71127;SDS011;59249;59.736;30.568;2022-07-06T05:38:45;5.13;;;1.10;;
71127;SDS011;59249;59.736;30.568;2022-07-06T05:41:14;2.55;;;0.77;;
71127;SDS011;59249;59.736;30.568;2022-07-06T05:43:44;3.65;;;0.60;;
71127;SDS011;59249;59.736;30.568;2022-07-06T05:46:13;9.60;;;1.85;;
71127;SDS011;59249;59.736;30.568;2022-07-06T05:48:42;4.65;;;0.82;;
71127;SDS011;59249;59.736;30.568;2022-07-06T05:51:28;4.67;;;0.80;;
71127;SDS011;59249;59.736;30.568;2022-07-06T05:53:57;3.45;;;0.80;;
71127;SDS011;59249;59.736;30.568;2022-07-06T05:56:25;7.90;;;0.80;;
71127;SDS011;59249;59.736;30.568;2022-07-06T05:58:55;5.55;;;0.90;;
71127;SDS011;59249;59.736;30.568;2022-07-06T06:01:24;2.53;;;0.75;;
71127;SDS011;59249;59.736;30.568;2022-07-06T06:04:04;5.43;;;0.93;;
71127;SDS011;59249;59.736;30.568;2022-07-06T06:06:35;3.00;;;0.85;;
71127;SDS011;59249;59.736;30.568;2022-07-06T06:09:04;4.30;;;0.80;;
71127;SDS011;59249;59.736;30.568;2022-07-06T06:11:33;6.57;;;0.95;;
71127;SDS011;59249;59.736;30.568;2022-07-06T06:14:03;3.55;;;0.70;;
71127;SDS011;59249;59.736;30.568;2022-07-06T06:16:32;1.87;;;0.50;;
71127;SDS011;59249;59.736;30.568;2022-07-06T06:19:00;2.60;;;0.60;;
71127;SDS011;59249;59.736;30.568;2022-07-06T06:21:29;6.72;;;1.38;;
71127;SDS011;59249;59.736;30.568;2022-07-06T06:23:57;6.00;;;0.70;;
71127;SDS011;59249;59.736;30.568;2022-07-06T06:26:26;2.72;;;0.47;;
71127;SDS011;59249;59.736;30.568;2022-07-06T06:28:54;4.13;;;0.57;;
71127;SDS011;59249;59.736;30.568;2022-07-06T06:31:24;3.33;;;0.57;;
71127;SDS011;59249;59.736;30.568;2022-07-06T06:33:53;3.60;;;0.90;;
71127;SDS011;59249;59.736;30.568;2022-07-06T06:36:21;2.50;;;0.50;;
71127;SDS011;59249;59.736;30.568;2022-07-06T06:38:50;2.60;;;0.60;;
71127;SDS011;59249;59.736;30.568;2022-07-06T06:41:22;2.63;;;0.60;;
71127;SDS011;59249;59.736;30.568;2022-07-06T06:43:51;2.58;;;0.60;;
71127;SDS011;59249;59.736;30.568;2022-07-06T06:46:24;4.75;;;1.00;;
71127;SDS011;59249;59.736;30.568;2022-07-06T06:48:53;2.53;;;0.50;;
71127;SDS011;59249;59.736;30.568;2022-07-06T06:51:22;3.90;;;0.60;;
71127;SDS011;59249;59.736;30.568;2022-07-06T06:53:50;3.53;;;0.47;;
71127;SDS011;59249;59.736;30.568;2022-07-06T06:56:19;3.28;;;0.57;;
71127;SDS011;59249;59.736;30.568;2022-07-06T06:58:48;3.90;;;0.80;;
71127;SDS011;59249;59.736;30.568;2022-07-06T07:01:38;4.40;;;0.60;;
71127;SDS011;59249;59.736;30.568;2022-07-06T07:04:06;3.33;;;0.60;;
71127;SDS011;59249;59.736;30.568;2022-07-06T07:06:35;4.37;;;0.70;;
71127;SDS011;59249;59.736;30.568;2022-07-06T07:09:04;5.20;;;0.80;;
71127;SDS011;59249;59.736;30.568;2022-07-06T07:11:32;2.35;;;0.60;;
71127;SDS011;59249;59.736;30.568;2022-07-06T07:14:01;5.20;;;0.68;;
71127;SDS011;59249;59.736;30.568;2022-07-06T07:16:30;3.78;;;0.80;;
71127;SDS011;59249;59.736;30.568;2022-07-06T07:19:01;2.20;;;0.50;;
71127;SDS011;59249;59.736;30.568;2022-07-06T07:21:30;2.00;;;0.32;;
71127;SDS011;59249;59.736;30.568;2022-07-06T07:23:58;1.92;;;0.57;;
71127;SDS011;59249;59.736;30.568;2022-07-06T07:26:35;3.83;;;0.50;;
71127;SDS011;59249;59.736;30.568;2022-07-06T07:29:04;3.53;;;0.52;;
71127;SDS011;59249;59.736;30.568;2022-07-06T07:31:32;2.67;;;0.60;;
71127;SDS011;59249;59.736;30.568;2022-07-06T07:34:02;3.30;;;0.45;;
71127;SDS011;59249;59.736;30.568;2022-07-06T07:36:31;4.63;;;0.70;;
71127;SDS011;59249;59.736;30.568;2022-07-06T07:39:00;2.00;;;0.60;;
71127;SDS011;59249;59.736;30.568;2022-07-06T07:41:28;2.72;;;0.80;;
71127;SDS011;59249;59.736;30.568;2022-07-06T07:43:57;1.43;;;0.50;;
71127;SDS011;59249;59.736;30.568;2022-07-06T07:46:25;2.00;;;0.70;;
71127;SDS011;59249;59.736;30.568;2022-07-06T07:48:55;2.22;;;0.40;;
71127;SDS011;59249;59.736;30.568;2022-07-06T07:51:25;3.70;;;0.80;;
71127;SDS011;59249;59.736;30.568;2022-07-06T07:53:54;5.75;;;0.73;;
71127;SDS011;59249;59.736;30.568;2022-07-06T07:56:22;3.03;;;0.60;;
71127;SDS011;59249;59.736;30.568;2022-07-06T07:58:51;3.45;;;0.80;;
71127;SDS011;59249;59.736;30.568;2022-07-06T08:01:25;2.08;;;0.52;;
71127;SDS011;59249;59.736;30.568;2022-07-06T08:03:54;4.63;;;0.77;;
71127;SDS011;59249;59.736;30.568;2022-07-06T08:06:22;2.97;;;0.80;;
71127;SDS011;59249;59.736;30.568;2022-07-06T08:08:53;3.53;;;0.70;;
71127;SDS011;59249;59.736;30.568;2022-07-06T08:11:22;6.25;;;0.82;;
71127;SDS011;59249;59.736;30.568;2022-07-06T08:13:50;2.00;;;0.63;;
71127;SDS011;59249;59.736;30.568;2022-07-06T08:16:19;1.67;;;0.40;;
71127;SDS011;59249;59.736;30.568;2022-07-06T08:18:48;2.50;;;1.00;;
71127;SDS011;59249;59.736;30.568;2022-07-06T08:21:16;6.00;;;0.77;;
71127;SDS011;59249;59.736;30.568;2022-07-06T08:24:07;4.22;;;0.50;;
71127;SDS011;59249;59.736;30.568;2022-07-06T08:26:37;5.13;;;0.65;;
71127;SDS011;59249;59.736;30.568;2022-07-06T08:29:06;3.78;;;0.68;;
71127;SDS011;59249;59.736;30.568;2022-07-06T08:31:34;5.68;;;0.60;;
71127;SDS011;59249;59.736;30.568;2022-07-06T08:34:22;4.27;;;0.60;;
71127;SDS011;59249;59.736;30.568;2022-07-06T08:36:59;3.83;;;0.57;;
71127;SDS011;59249;59.736;30.568;2022-07-06T08:39:29;5.60;;;0.45;;
71127;SDS011;59249;59.736;30.568;2022-07-06T08:41:58;2.25;;;0.60;;
71127;SDS011;59249;59.736;30.568;2022-07-06T08:44:29;5.78;;;0.75;;
71127;SDS011;59249;59.736;30.568;2022-07-06T08:46:58;2.90;;;0.77;;
71127;SDS011;59249;59.736;30.568;2022-07-06T08:49:31;4.15;;;0.52;;
71127;SDS011;59249;59.736;30.568;2022-07-06T08:52:02;2.45;;;0.50;;
71127;SDS011;59249;59.736;30.568;2022-07-06T08:54:34;4.53;;;0.85;;
71127;SDS011;59249;59.736;30.568;2022-07-06T08:57:03;4.78;;;0.60;;
71127;SDS011;59249;59.736;30.568;2022-07-06T08:59:32;3.07;;;0.60;;
71127;SDS011;59249;59.736;30.568;2022-07-06T09:02:01;4.32;;;0.60;;
71127;SDS011;59249;59.736;30.568;2022-07-06T09:04:32;3.35;;;0.38;;
71127;SDS011;59249;59.736;30.568;2022-07-06T09:07:01;3.10;;;0.50;;
71127;SDS011;59249;59.736;30.568;2022-07-06T09:09:31;1.35;;;0.40;;
71127;SDS011;59249;59.736;30.568;2022-07-06T09:12:02;2.83;;;0.40;;
71127;SDS011;59249;59.736;30.568;2022-07-06T09:14:31;3.60;;;0.50;;
71127;SDS011;59249;59.736;30.568;2022-07-06T09:17:04;3.53;;;0.50;;
71127;SDS011;59249;59.736;30.568;2022-07-06T09:19:42;2.83;;;0.60;;
71127;SDS011;59249;59.736;30.568;2022-07-06T09:22:24;4.47;;;0.50;;
71127;SDS011;59249;59.736;30.568;2022-07-06T09:25:00;2.90;;;0.40;;
71127;SDS011;59249;59.736;30.568;2022-07-06T09:27:32;4.25;;;0.50;;
71127;SDS011;59249;59.736;30.568;2022-07-06T09:30:05;1.50;;;0.32;;
71127;SDS011;59249;59.736;30.568;2022-07-06T09:32:38;5.38;;;0.55;;
71127;SDS011;59249;59.736;30.568;2022-07-06T09:35:07;2.42;;;0.43;;
71127;SDS011;59249;59.736;30.568;2022-07-06T09:37:36;2.73;;;0.60;;
71127;SDS011;59249;59.736;30.568;2022-07-06T09:40:15;3.10;;;0.50;;
71127;SDS011;59249;59.736;30.568;2022-07-06T09:42:46;2.58;;;0.43;;
71127;SDS011;59249;59.736;30.568;2022-07-06T09:45:19;1.90;;;0.63;;
71127;SDS011;59249;59.736;30.568;2022-07-06T09:47:52;3.80;;;0.60;;
71127;SDS011;59249;59.736;30.568;2022-07-06T09:50:21;4.23;;;0.80;;
71127;SDS011;59249;59.736;30.568;2022-07-06T09:52:53;2.53;;;0.50;;
71127;SDS011;59249;59.736;30.568;2022-07-06T09:55:23;2.58;;;0.40;;
71127;SDS011;59249;59.736;30.568;2022-07-06T09:57:53;3.15;;;0.70;;
71127;SDS011;59249;59.736;30.568;2022-07-06T10:00:23;5.50;;;0.75;;
71127;SDS011;59249;59.736;30.568;2022-07-06T10:02:51;2.90;;;0.50;;
71127;SDS011;59249;59.736;30.568;2022-07-06T10:05:22;2.50;;;0.50;;
71127;SDS011;59249;59.736;30.568;2022-07-06T10:07:56;4.60;;;0.47;;
71127;SDS011;59249;59.736;30.568;2022-07-06T10:10:32;1.92;;;0.32;;
71127;SDS011;59249;59.736;30.568;2022-07-06T10:13:03;4.35;;;0.57;;
71127;SDS011;59249;59.736;30.568;2022-07-06T10:15:35;1.80;;;0.40;;
71127;SDS011;59249;59.736;30.568;2022-07-06T10:18:05;3.53;;;0.65;;
71127;SDS011;59249;59.736;30.568;2022-07-06T10:20:36;3.22;;;0.57;;
71127;SDS011;59249;59.736;30.568;2022-07-06T10:23:06;3.00;;;0.60;;
71127;SDS011;59249;59.736;30.568;2022-07-06T10:25:36;4.57;;;0.60;;
71127;SDS011;59249;59.736;30.568;2022-07-06T10:28:06;1.50;;;0.40;;
71127;SDS011;59249;59.736;30.568;2022-07-06T10:30:42;3.72;;;0.57;;
71127;SDS011;59249;59.736;30.568;2022-07-06T10:33:12;3.35;;;0.57;;
71127;SDS011;59249;59.736;30.568;2022-07-06T10:35:42;2.67;;;0.40;;
71127;SDS011;59249;59.736;30.568;2022-07-06T10:38:12;1.67;;;0.47;;
71127;SDS011;59249;59.736;30.568;2022-07-06T10:40:41;4.53;;;0.63;;
71127;SDS011;59249;59.736;30.568;2022-07-06T10:43:35;3.20;;;0.55;;
71127;SDS011;59249;59.736;30.568;2022-07-06T10:46:05;4.15;;;0.50;;
71127;SDS011;59249;59.736;30.568;2022-07-06T10:48:35;2.22;;;0.50;;
71127;SDS011;59249;59.736;30.568;2022-07-06T10:51:05;3.35;;;0.57;;
71127;SDS011;59249;59.736;30.568;2022-07-06T10:53:35;2.13;;;0.50;;
71127;SDS011;59249;59.736;30.568;2022-07-06T10:56:06;3.55;;;0.50;;
71127;SDS011;59249;59.736;30.568;2022-07-06T10:58:38;1.58;;;0.40;;
71127;SDS011;59249;59.736;30.568;2022-07-06T11:01:08;4.25;;;0.80;;
71127;SDS011;59249;59.736;30.568;2022-07-06T11:03:38;2.90;;;0.60;;
71127;SDS011;59249;59.736;30.568;2022-07-06T11:06:10;2.47;;;0.40;;
71127;SDS011;59249;59.736;30.568;2022-07-06T11:08:41;4.30;;;0.55;;
71127;SDS011;59249;59.736;30.568;2022-07-06T11:11:19;2.38;;;0.85;;
71127;SDS011;59249;59.736;30.568;2022-07-06T11:13:51;6.45;;;1.00;;
71127;SDS011;59249;59.736;30.568;2022-07-06T11:16:21;2.67;;;0.40;;
71127;SDS011;59249;59.736;30.568;2022-07-06T11:19:00;3.10;;;0.77;;
71127;SDS011;59249;59.736;30.568;2022-07-06T11:21:32;3.55;;;0.60;;
71127;SDS011;59249;59.736;30.568;2022-07-06T11:24:03;1.70;;;0.52;;
71127;SDS011;59249;59.736;30.568;2022-07-06T11:26:33;2.92;;;0.40;;
71127;SDS011;59249;59.736;30.568;2022-07-06T11:29:08;1.70;;;0.52;;
71127;SDS011;59249;59.736;30.568;2022-07-06T11:31:39;2.60;;;0.80;;
71127;SDS011;59249;59.736;30.568;2022-07-06T11:34:09;4.28;;;0.63;;
71127;SDS011;59249;59.736;30.568;2022-07-06T11:36:39;4.53;;;0.70;;
71127;SDS011;59249;59.736;30.568;2022-07-06T11:39:12;4.40;;;0.80;;
71127;SDS011;59249;59.736;30.568;2022-07-06T11:41:41;2.95;;;0.60;;
71127;SDS011;59249;59.736;30.568;2022-07-06T11:44:18;3.10;;;0.70;;
71127;SDS011;59249;59.736;30.568;2022-07-06T11:46:47;1.85;;;0.40;;
71127;SDS011;59249;59.736;30.568;2022-07-06T11:49:16;4.32;;;0.60;;
71127;SDS011;59249;59.736;30.568;2022-07-06T11:51:45;3.63;;;0.60;;
71127;SDS011;59249;59.736;30.568;2022-07-06T11:54:15;2.45;;;0.50;;
71127;SDS011;59249;59.736;30.568;2022-07-06T11:56:45;2.90;;;0.70;;
71127;SDS011;59249;59.736;30.568;2022-07-06T11:59:15;2.58;;;0.63;;
71127;SDS011;59249;59.736;30.568;2022-07-06T12:01:49;2.13;;;0.43;;
71127;SDS011;59249;59.736;30.568;2022-07-06T12:04:18;3.97;;;0.50;;
71127;SDS011;59249;59.736;30.568;2022-07-06T12:06:52;5.18;;;0.65;;
71127;SDS011;59249;59.736;30.568;2022-07-06T12:09:20;2.53;;;0.60;;
71127;SDS011;59249;59.736;30.568;2022-07-06T12:11:49;2.28;;;0.63;;
71127;SDS011;59249;59.736;30.568;2022-07-06T12:14:18;1.77;;;0.60;;
71127;SDS011;59249;59.736;30.568;2022-07-06T12:16:49;3.28;;;0.70;;
71127;SDS011;59249;59.736;30.568;2022-07-06T12:19:19;2.78;;;0.65;;
71127;SDS011;59249;59.736;30.568;2022-07-06T12:21:50;1.97;;;0.50;;
71127;SDS011;59249;59.736;30.568;2022-07-06T12:24:20;2.40;;;0.52;;
71127;SDS011;59249;59.736;30.568;2022-07-06T12:26:50;2.03;;;0.40;;
71127;SDS011;59249;59.736;30.568;2022-07-06T12:29:20;4.45;;;0.57;;
71127;SDS011;59249;59.736;30.568;2022-07-06T12:31:51;2.00;;;0.40;;
71127;SDS011;59249;59.736;30.568;2022-07-06T12:34:21;4.47;;;0.67;;
71127;SDS011;59249;59.736;30.568;2022-07-06T12:36:51;2.53;;;0.60;;
71127;SDS011;59249;59.736;30.568;2022-07-06T12:39:21;2.33;;;0.32;;
71127;SDS011;59249;59.736;30.568;2022-07-06T12:41:51;1.35;;;0.45;;
71127;SDS011;59249;59.736;30.568;2022-07-06T12:44:22;3.17;;;0.50;;
71127;SDS011;59249;59.736;30.568;2022-07-06T12:47:01;3.40;;;0.50;;
71127;SDS011;59249;59.736;30.568;2022-07-06T12:49:32;2.47;;;0.30;;
71127;SDS011;59249;59.736;30.568;2022-07-06T12:52:02;2.00;;;0.30;;
71127;SDS011;59249;59.736;30.568;2022-07-06T12:54:40;2.10;;;0.30;;
71127;SDS011;59249;59.736;30.568;2022-07-06T12:57:11;3.42;;;0.40;;
71127;SDS011;59249;59.736;30.568;2022-07-06T12:59:42;3.00;;;0.60;;
71127;SDS011;59249;59.736;30.568;2022-07-06T13:02:21;1.65;;;0.45;;
71127;SDS011;59249;59.736;30.568;2022-07-06T13:05:12;3.17;;;0.40;;
71127;SDS011;59249;59.736;30.568;2022-07-06T13:07:43;3.28;;;0.50;;
71127;SDS011;59249;59.736;30.568;2022-07-06T13:10:13;2.65;;;0.70;;
71127;SDS011;59249;59.736;30.568;2022-07-06T13:12:42;3.30;;;0.87;;
71127;SDS011;59249;59.736;30.568;2022-07-06T13:15:12;1.92;;;0.47;;
71127;SDS011;59249;59.736;30.568;2022-07-06T13:17:42;4.82;;;0.85;;
71127;SDS011;59249;59.736;30.568;2022-07-06T13:20:12;3.30;;;0.77;;
71127;SDS011;59249;59.736;30.568;2022-07-06T13:22:44;3.55;;;0.40;;
71127;SDS011;59249;59.736;30.568;2022-07-06T13:25:13;1.93;;;0.47;;
71127;SDS011;59249;59.736;30.568;2022-07-06T13:27:41;1.52;;;0.50;;
71127;SDS011;59249;59.736;30.568;2022-07-06T13:30:11;2.70;;;0.50;;
71127;SDS011;59249;59.736;30.568;2022-07-06T13:32:41;3.85;;;0.60;;
71127;SDS011;59249;59.736;30.568;2022-07-06T13:35:10;2.40;;;0.50;;
71127;SDS011;59249;59.736;30.568;2022-07-06T13:37:38;4.77;;;0.67;;
71127;SDS011;59249;59.736;30.568;2022-07-06T13:40:07;2.10;;;0.63;;
71127;SDS011;59249;59.736;30.568;2022-07-06T13:42:37;2.15;;;0.40;;
71127;SDS011;59249;59.736;30.568;2022-07-06T13:45:06;2.95;;;0.73;;
71127;SDS011;59249;59.736;30.568;2022-07-06T13:47:35;3.42;;;0.47;;
71127;SDS011;59249;59.736;30.568;2022-07-06T13:50:06;4.00;;;0.70;;
71127;SDS011;59249;59.736;30.568;2022-07-06T13:52:35;3.58;;;0.52;;
71127;SDS011;59249;59.736;30.568;2022-07-06T13:55:04;2.60;;;0.90;;
71127;SDS011;59249;59.736;30.568;2022-07-06T13:57:34;2.97;;;0.50;;
71127;SDS011;59249;59.736;30.568;2022-07-06T14:00:03;3.50;;;0.68;;
71127;SDS011;59249;59.736;30.568;2022-07-06T14:02:34;3.57;;;0.60;;
71127;SDS011;59249;59.736;30.568;2022-07-06T14:05:05;2.97;;;0.38;;
71127;SDS011;59249;59.736;30.568;2022-07-06T14:07:34;3.13;;;0.50;;
71127;SDS011;59249;59.736;30.568;2022-07-06T14:10:03;5.30;;;0.60;;
71127;SDS011;59249;59.736;30.568;2022-07-06T14:12:32;4.18;;;1.00;;
71127;SDS011;59249;59.736;30.568;2022-07-06T14:15:01;3.47;;;0.60;;
71127;SDS011;59249;59.736;30.568;2022-07-06T14:17:29;2.30;;;0.60;;
71127;SDS011;59249;59.736;30.568;2022-07-06T14:19:58;3.88;;;0.55;;
71127;SDS011;59249;59.736;30.568;2022-07-06T14:22:30;6.18;;;1.15;;
71127;SDS011;59249;59.736;30.568;2022-07-06T14:24:59;3.33;;;0.60;;
71127;SDS011;59249;59.736;30.568;2022-07-06T14:27:28;9.33;;;0.73;;
71127;SDS011;59249;59.736;30.568;2022-07-06T14:29:57;2.78;;;0.52;;
71127;SDS011;59249;59.736;30.568;2022-07-06T14:32:26;1.05;;;0.30;;
71127;SDS011;59249;59.736;30.568;2022-07-06T14:34:55;1.23;;;0.30;;
71127;SDS011;59249;59.736;30.568;2022-07-06T14:37:23;2.67;;;0.77;;
71127;SDS011;59249;59.736;30.568;2022-07-06T14:39:53;3.87;;;0.60;;
71127;SDS011;59249;59.736;30.568;2022-07-06T14:42:22;4.35;;;0.70;;
71127;SDS011;59249;59.736;30.568;2022-07-06T14:44:51;2.05;;;0.50;;
71127;SDS011;59249;59.736;30.568;2022-07-06T14:47:19;3.35;;;0.52;;
71127;SDS011;59249;59.736;30.568;2022-07-06T14:49:48;2.97;;;0.50;;
71127;SDS011;59249;59.736;30.568;2022-07-06T14:52:17;2.90;;;0.60;;